createdAt,value
2022-08-10T00:00:13.759Z,54.50
2022-08-10T00:05:17.828Z,54.50
2022-08-10T00:10:27.946Z,54.70
2022-08-10T00:15:44.038Z,54.60
2022-08-10T00:20:55.882Z,55.30
2022-08-10T00:26:01.579Z,54.60
2022-08-10T00:31:05.333Z,54.60
2022-08-10T00:36:10.077Z,54.60
2022-08-10T00:41:15.230Z,54.60
2022-08-10T00:46:18.986Z,54.80
2022-08-10T00:51:22.814Z,54.90
2022-08-10T00:57:14.741Z,54.90
2022-08-10T01:02:11.849Z,54.80
2022-08-10T01:07:35.892Z,54.80
2022-08-10T01:12:52.859Z,54.90
2022-08-10T01:18:06.234Z,54.90
2022-08-10T01:23:49.764Z,55.00
2022-08-10T01:29:15.009Z,54.70
2022-08-10T01:34:27.158Z,54.60
2022-08-10T01:39:40.945Z,54.70
2022-08-10T01:44:53.454Z,54.80
2022-08-10T01:50:06.546Z,54.60
2022-08-10T01:55:11.972Z,54.60
2022-08-10T02:00:16.566Z,54.50
2022-08-10T02:05:23.652Z,54.60
2022-08-10T02:10:27.645Z,54.60
2022-08-10T02:15:34.767Z,54.70
2022-08-10T02:20:48.058Z,54.60
2022-08-10T02:25:54.321Z,54.60
2022-08-10T02:31:06.855Z,54.50
2022-08-10T02:36:14.540Z,54.70
2022-08-10T02:45:01.078Z,54.50
2022-08-10T02:47:04.851Z,54.50
2022-08-10T02:52:19.314Z,54.50
2022-08-10T02:57:29.980Z,54.50
2022-08-10T03:02:40.449Z,54.50
2022-08-10T03:07:59.941Z,54.60
2022-08-10T03:13:08.537Z,54.50
2022-08-10T03:18:14.020Z,54.50
2022-08-10T03:23:24.553Z,54.50
2022-08-10T03:28:31.609Z,54.60
2022-08-10T03:33:39.138Z,54.60
2022-08-10T03:38:46.255Z,54.60
2022-08-10T03:43:51.103Z,54.60
2022-08-10T03:48:59.510Z,54.50
2022-08-10T03:54:07.566Z,54.70
2022-08-10T03:59:14.779Z,54.70
2022-08-10T04:04:23.593Z,54.70
2022-08-10T04:09:53.605Z,54.60
2022-08-10T04:14:56.055Z,54.60
2022-08-10T04:20:01.927Z,54.60
2022-08-10T04:25:10.437Z,54.60
2022-08-10T04:30:14.564Z,54.50
2022-08-10T04:35:21.337Z,54.60
2022-08-10T04:40:30.246Z,54.60
2022-08-10T04:45:49.201Z,54.50
2022-08-10T04:50:55.141Z,54.50
2022-08-10T04:56:00.632Z,54.50
2022-08-10T05:01:04.680Z,54.50
2022-08-10T05:06:09.714Z,54.50
2022-08-10T05:11:24.043Z,54.50
2022-08-10T05:16:31.850Z,54.40
2022-08-10T05:22:03.344Z,54.40
2022-08-10T05:27:09.977Z,54.40
2022-08-10T05:32:14.614Z,54.50
2022-08-10T05:38:13.035Z,54.50
2022-08-10T05:42:44.462Z,54.60
2022-08-10T05:48:55.139Z,54.40
2022-08-10T05:53:59.718Z,55.10
2022-08-10T05:58:38.411Z,54.50
2022-08-10T06:03:53.687Z,54.60
2022-08-10T06:08:59.497Z,54.60
2022-08-10T06:14:28.407Z,54.60
2022-08-10T06:19:34.071Z,54.70
2022-08-10T06:25:02.753Z,54.80
2022-08-10T06:30:19.810Z,54.90
2022-08-10T06:36:01.075Z,55.00
2022-08-10T06:41:19.494Z,55.00
2022-08-10T06:46:26.078Z,55.10
2022-08-10T06:51:35.105Z,55.30
2022-08-10T06:57:01.645Z,55.20
2022-08-10T07:02:12.126Z,55.30
2022-08-10T07:07:25.437Z,55.30
2022-08-10T07:12:30.701Z,55.30
2022-08-10T07:17:39.809Z,55.40
2022-08-10T07:23:22.666Z,55.40
2022-08-10T07:28:12.493Z,55.60
2022-08-10T07:33:21.077Z,55.60
2022-08-10T07:38:30.315Z,55.70
2022-08-10T07:43:40.186Z,55.70
2022-08-10T07:48:51.774Z,55.70
2022-08-10T07:53:57.561Z,55.60
2022-08-10T07:59:09.304Z,55.70
2022-08-10T08:04:16.437Z,55.70
2022-08-10T08:09:21.231Z,55.80
2022-08-10T08:14:26.134Z,55.80
2022-08-10T08:19:37.145Z,55.80
2022-08-10T08:24:46.218Z,55.80
2022-08-10T08:29:52.923Z,55.80
2022-08-10T08:35:05.316Z,55.80
2022-08-10T08:40:26.131Z,55.90
2022-08-10T08:45:50.970Z,55.80
2022-08-10T08:52:09.539Z,55.80
2022-08-10T08:57:04.594Z,55.90
2022-08-10T09:02:30.808Z,55.90
2022-08-10T09:08:28.948Z,55.90
2022-08-10T09:13:42.013Z,55.90
2022-08-10T09:18:54.980Z,55.90
2022-08-10T09:24:08.399Z,55.90
2022-08-10T09:29:18.800Z,55.80
2022-08-10T09:36:23.359Z,55.80
2022-08-10T09:40:59.305Z,55.90
2022-08-10T09:45:58.150Z,55.90
2022-08-10T09:51:44.108Z,55.90
2022-08-10T09:57:43.563Z,55.80
2022-08-10T10:02:47.261Z,55.90
2022-08-10T10:08:03.387Z,55.80
2022-08-10T10:13:19.803Z,55.70
2022-08-10T10:18:54.658Z,55.70
2022-08-10T10:24:22.426Z,55.70
2022-08-10T10:29:56.675Z,55.70
2022-08-10T10:35:14.102Z,55.60
2022-08-10T10:40:18.586Z,55.70
2022-08-10T10:45:40.318Z,55.60
2022-08-10T10:51:10.848Z,55.70
2022-08-10T10:56:26.411Z,55.50
2022-08-10T11:01:45.710Z,55.40
2022-08-10T11:07:03.078Z,55.50
2022-08-10T11:12:23.248Z,55.50
2022-08-10T11:17:42.110Z,55.40
2022-08-10T11:23:01.025Z,55.30
2022-08-10T11:28:14.486Z,55.30
2022-08-10T11:33:32.851Z,55.20
2022-08-10T11:39:14.118Z,55.30
2022-08-10T11:44:31.020Z,55.30
2022-08-10T11:49:47.849Z,55.30
2022-08-10T11:54:56.514Z,55.20
2022-08-10T12:00:00.599Z,55.10
2022-08-10T12:05:12.272Z,55.20
2022-08-10T12:10:17.171Z,55.10
2022-08-10T12:15:29.495Z,55.00
2022-08-10T12:20:39.735Z,55.00
2022-08-10T12:25:56.228Z,55.00
2022-08-10T12:31:03.250Z,55.00
2022-08-10T12:36:23.994Z,54.90
2022-08-10T12:41:44.564Z,54.90
2022-08-10T12:47:00.351Z,54.80
2022-08-10T12:52:19.720Z,54.70
2022-08-10T12:57:26.798Z,54.60
2022-08-10T13:02:34.062Z,54.80
2022-08-10T13:08:25.093Z,54.50
2022-08-10T13:13:08.245Z,54.50
2022-08-10T13:18:18.718Z,54.50
2022-08-10T13:23:29.558Z,54.50
2022-08-10T13:28:45.650Z,54.40
2022-08-10T13:34:40.355Z,54.40
2022-08-10T13:39:26.309Z,54.30
2022-08-10T13:44:33.919Z,54.30
2022-08-10T13:49:48.601Z,54.30
2022-08-10T13:54:57.986Z,54.30
2022-08-10T14:00:35.153Z,54.30
2022-08-10T14:05:36.897Z,54.30
2022-08-10T14:11:08.858Z,54.30
2022-08-10T14:16:10.447Z,54.20
2022-08-10T14:21:15.137Z,54.10
2022-08-10T14:26:26.443Z,54.50
2022-08-10T14:31:36.291Z,54.20
2022-08-10T14:36:48.953Z,54.40
2022-08-10T14:42:05.672Z,54.40
2022-08-10T14:47:52.093Z,54.30
2022-08-10T14:52:44.194Z,54.60
2022-08-10T14:58:19.042Z,54.70
2022-08-10T15:04:01.767Z,54.90
2022-08-10T15:08:47.011Z,55.00
2022-08-10T15:14:12.450Z,55.10
2022-08-10T15:20:03.511Z,55.00
2022-08-10T15:25:04.674Z,55.10
2022-08-10T15:30:13.786Z,55.10
2022-08-10T15:35:37.354Z,54.70
2022-08-10T15:40:51.977Z,54.60
2022-08-10T15:46:07.534Z,54.60
2022-08-10T15:51:28.181Z,54.50
2022-08-10T15:56:46.115Z,54.40
2022-08-10T16:02:13.854Z,54.30
2022-08-10T16:07:45.894Z,54.40
2022-08-10T16:13:00.962Z,54.20
2022-08-10T16:18:10.920Z,54.10
2022-08-10T16:23:20.317Z,54.60
2022-08-10T16:28:32.940Z,54.00
2022-08-10T16:33:53.136Z,53.80
2022-08-10T16:39:00.518Z,54.10
2022-08-10T16:44:07.013Z,53.80
2022-08-10T16:49:13.584Z,53.70
2022-08-10T16:54:27.327Z,53.60
2022-08-10T16:59:37.037Z,53.60
2022-08-10T17:04:45.229Z,53.60
2022-08-10T17:09:52.796Z,53.40
2022-08-10T17:15:09.781Z,53.30
2022-08-10T17:20:32.038Z,53.20
2022-08-10T17:25:46.357Z,53.20
2022-08-10T17:31:05.378Z,53.20
2022-08-10T17:36:35.412Z,53.30
2022-08-10T17:41:40.386Z,53.20
2022-08-10T17:46:47.252Z,53.20
2022-08-10T17:51:55.392Z,53.10
2022-08-10T17:57:05.291Z,53.00
2022-08-10T18:02:12.839Z,53.00
2022-08-10T18:07:22.378Z,53.10
2022-08-10T18:12:38.780Z,53.10
2022-08-10T18:17:46.243Z,53.00
2022-08-10T18:22:52.765Z,53.10
2022-08-10T18:28:04.603Z,53.10
2022-08-10T18:33:12.817Z,53.20
2022-08-10T18:38:20.179Z,53.20
2022-08-10T18:44:05.752Z,53.20
2022-08-10T18:49:07.305Z,53.30
2022-08-10T18:54:38.926Z,53.30
2022-08-10T19:00:09.142Z,53.50
2022-08-10T19:05:36.729Z,53.60
2022-08-10T19:11:01.237Z,53.40
2022-08-10T19:16:16.312Z,53.70
2022-08-10T19:21:30.365Z,53.30
2022-08-10T19:26:46.318Z,53.70
2022-08-10T19:32:00.403Z,54.00
2022-08-10T19:37:32.387Z,53.90
2022-08-10T19:42:47.104Z,53.90
2022-08-10T19:48:00.036Z,53.80
2022-08-10T19:53:14.532Z,53.90
2022-08-10T19:58:27.814Z,53.80
2022-08-10T20:03:45.756Z,53.80
2022-08-10T20:09:00.412Z,53.80
2022-08-10T20:14:22.123Z,53.80
2022-08-10T20:19:52.477Z,54.10
2022-08-10T20:25:07.171Z,54.30
2022-08-10T20:30:16.245Z,54.30
2022-08-10T20:35:30.079Z,54.30
2022-08-10T20:40:44.454Z,54.30
2022-08-10T20:46:09.299Z,54.30
2022-08-10T20:51:20.726Z,54.30
2022-08-10T20:56:42.498Z,54.00
2022-08-10T21:02:06.512Z,53.70
2022-08-10T21:08:02.586Z,53.80
2022-08-10T21:14:02.909Z,53.80
2022-08-10T21:19:57.085Z,54.00
2022-08-10T21:25:08.415Z,53.90
2022-08-10T21:30:22.741Z,53.60
2022-08-10T21:35:38.426Z,53.40
2022-08-10T21:41:57.611Z,53.70
2022-08-10T21:47:38.119Z,53.40
2022-08-10T21:53:16.834Z,53.30
2022-08-10T21:58:46.825Z,53.80
2022-08-10T22:04:10.211Z,53.70
2022-08-10T22:09:42.426Z,53.70
2022-08-10T22:15:09.441Z,53.50
2022-08-10T22:20:38.705Z,53.60
2022-08-10T22:26:21.172Z,53.50
2022-08-10T22:32:03.329Z,53.40
2022-08-10T22:37:51.298Z,53.50
2022-08-10T22:43:16.812Z,53.30
2022-08-10T22:48:59.808Z,53.60
2022-08-10T22:54:34.562Z,53.30
2022-08-10T22:59:39.782Z,53.30
2022-08-10T23:04:52.122Z,53.90
2022-08-10T23:10:03.119Z,53.40
2022-08-10T23:15:38.139Z,53.40
2022-08-10T23:20:44.456Z,53.50
2022-08-10T23:25:56.981Z,53.70
2022-08-10T23:31:03.193Z,53.50
2022-08-10T23:36:34.732Z,53.40
2022-08-10T23:41:38.692Z,53.40
2022-08-10T23:46:45.404Z,53.30
2022-08-10T23:51:55.273Z,53.30
2022-08-10T23:57:02.232Z,53.40
